createdAt,value
2023-04-15T00:01:33.965Z,98260.59
2023-04-15T00:06:38.416Z,98255.84
2023-04-15T00:11:42.227Z,98252.16
2023-04-15T00:16:47.029Z,98253.75
2023-04-15T00:21:50.572Z,98249.63
2023-04-15T00:26:53.989Z,98246.94
2023-04-15T00:31:59.075Z,98249.34
2023-04-15T00:37:02.550Z,98259.03
2023-04-15T00:42:06.594Z,98264.63
2023-04-15T00:47:12.984Z,98273.25
2023-04-15T00:52:16.931Z,98283.75
2023-04-15T00:57:21.757Z,98273.19
2023-04-15T01:02:27.463Z,98267.16
2023-04-15T01:07:31.077Z,98276.72
2023-04-15T01:12:35.327Z,98284.03
2023-04-15T01:17:40.915Z,98287.72
2023-04-15T01:22:45.369Z,98286.78
2023-04-15T01:27:51.134Z,98287.66
2023-04-15T01:32:55.190Z,98306.78
2023-04-15T01:38:17.315Z,98306.47
2023-04-15T01:43:23.239Z,98290.50
2023-04-15T01:48:27.426Z,98277.44
2023-04-15T01:53:30.806Z,98263.66
2023-04-15T01:58:35.923Z,98262.81
2023-04-15T02:03:40.007Z,98262.53
2023-04-15T02:08:43.756Z,98259.13
2023-04-15T02:13:49.212Z,98268.34
2023-04-15T02:18:52.724Z,98264.34
2023-04-15T02:23:56.369Z,98264.47
2023-04-15T02:29:01.723Z,98266.28
2023-04-15T02:34:05.576Z,98251.56
2023-04-15T02:39:08.989Z,98252.03
2023-04-15T02:44:13.773Z,98261.56
2023-04-15T02:49:17.463Z,98252.88
2023-04-15T02:54:23.795Z,98257.78
2023-04-15T02:59:28.871Z,98253.38
2023-04-15T03:04:32.595Z,98254.81
2023-04-15T03:09:36.348Z,98243.28
2023-04-15T03:14:42.233Z,98252.72
2023-04-15T03:19:46.119Z,98252.69
2023-04-15T03:24:49.999Z,98256.47
2023-04-15T03:29:55.254Z,98256.44
2023-04-15T03:35:00.916Z,98258.19
2023-04-15T03:40:04.513Z,98280.84
2023-04-15T03:45:10.551Z,98279.84
2023-04-15T03:50:13.895Z,98279.88
2023-04-15T03:55:17.514Z,98276.84
2023-04-15T04:00:22.734Z,98270.75
2023-04-15T04:05:26.126Z,98277.34
2023-04-15T04:10:29.595Z,98263.56
2023-04-15T04:15:35.062Z,98265.59
2023-04-15T04:20:38.798Z,98262.00
2023-04-15T04:25:42.740Z,98264.03
2023-04-15T04:30:47.545Z,98264.47
2023-04-15T04:35:51.290Z,98273.28
2023-04-15T04:40:54.761Z,98283.72
2023-04-15T04:45:59.554Z,98280.13
2023-04-15T04:51:03.357Z,98280.97
2023-04-15T04:56:07.042Z,98280.09
2023-04-15T05:01:13.175Z,98290.13
2023-04-15T05:06:16.621Z,98300.59
2023-04-15T05:11:20.087Z,98293.31
2023-04-15T05:16:25.968Z,98291.81
2023-04-15T05:21:29.333Z,98284.44
2023-04-15T05:26:32.887Z,98273.78
2023-04-15T05:31:38.621Z,98286.56
2023-04-15T05:36:42.348Z,98296.19
2023-04-15T05:41:45.826Z,98288.34
2023-04-15T05:46:51.014Z,98287.97
2023-04-15T05:51:54.406Z,98289.94
2023-04-15T05:56:58.486Z,98296.16
2023-04-15T06:02:03.320Z,98295.50
2023-04-15T06:07:07.003Z,98310.75
2023-04-15T06:12:12.514Z,98325.69
2023-04-15T06:17:18.616Z,98333.72
2023-04-15T06:22:22.367Z,98345.78
2023-04-15T06:27:26.046Z,98348.63
2023-04-15T06:32:31.295Z,98349.03
2023-04-15T06:37:35.014Z,98374.59
2023-04-15T06:42:38.738Z,98362.41
2023-04-15T06:47:43.761Z,98375.09
2023-04-15T06:52:47.572Z,98375.22
2023-04-15T06:57:51.020Z,98360.06
2023-04-15T07:02:56.622Z,98358.44
2023-04-15T07:08:00.504Z,98361.81
2023-04-15T07:13:03.917Z,98365.84
2023-04-15T07:18:09.780Z,98372.72
2023-04-15T07:23:13.138Z,98349.41
2023-04-15T07:28:16.625Z,98359.41
2023-04-15T07:33:21.705Z,98356.00
2023-04-15T07:38:25.203Z,98370.66
2023-04-15T07:43:29.181Z,98378.16
2023-04-15T07:48:35.492Z,98386.47
2023-04-15T07:53:40.014Z,98392.53
2023-04-15T07:58:43.924Z,98393.50
2023-04-15T08:03:48.909Z,98393.31
2023-04-15T08:08:52.930Z,98396.47
2023-04-15T08:13:56.440Z,98399.09
2023-04-15T08:19:01.630Z,98395.28
2023-04-15T08:24:05.388Z,98398.06
2023-04-15T08:29:09.267Z,98407.06
2023-04-15T08:34:14.161Z,98417.56
2023-04-15T08:39:17.569Z,98421.25
2023-04-15T08:44:22.908Z,98398.31
2023-04-15T08:49:29.223Z,98393.63
2023-04-15T08:54:33.108Z,98391.22
2023-04-15T08:59:37.140Z,98400.72
2023-04-15T09:04:42.379Z,98394.50
2023-04-15T09:09:46.246Z,98410.47
2023-04-15T09:14:50.184Z,98406.03
2023-04-15T09:20:09.801Z,98415.38
2023-04-15T09:25:34.304Z,98423.50
2023-04-15T09:30:39.090Z,98418.16
2023-04-15T09:35:50.306Z,98425.97
2023-04-15T09:40:53.757Z,98421.47
2023-04-15T09:45:59.343Z,98431.63
2023-04-15T09:51:04.496Z,98424.16
2023-04-15T09:56:09.184Z,98424.44
2023-04-15T10:01:12.679Z,98428.66
2023-04-15T10:06:18.281Z,98434.66
2023-04-15T10:11:24.291Z,98425.44
2023-04-15T10:16:30.228Z,98423.94
2023-04-15T10:21:35.849Z,98421.72
2023-04-15T10:26:39.637Z,98425.59
2023-04-15T10:31:43.820Z,98424.47
2023-04-15T10:36:48.626Z,98431.16
2023-04-15T10:42:08.638Z,98424.66
2023-04-15T10:47:14.093Z,98433.03
2023-04-15T10:52:26.244Z,98426.13
2023-04-15T10:57:36.868Z,98440.97
2023-04-15T11:02:45.230Z,98434.34
2023-04-15T11:07:52.859Z,98433.91
2023-04-15T11:12:59.500Z,98432.41
2023-04-15T11:18:11.044Z,98426.53
2023-04-15T11:23:17.091Z,98424.63
2023-04-15T11:28:20.406Z,98428.16
2023-04-15T11:33:25.053Z,98429.94
2023-04-15T11:38:29.948Z,98432.09
2023-04-15T11:43:35.507Z,98428.16
2023-04-15T11:48:45.058Z,98409.84
2023-04-15T11:53:52.119Z,98433.00
2023-04-15T11:59:00.260Z,98432.06
2023-04-15T12:04:13.075Z,98420.50
2023-04-15T12:09:20.314Z,98426.50
2023-04-15T12:14:26.704Z,98422.59
2023-04-15T12:19:32.578Z,98423.31
2023-04-15T12:24:38.859Z,98414.75
2023-04-15T12:29:44.269Z,98421.47
2023-04-15T12:34:52.154Z,98420.19
2023-04-15T12:39:57.046Z,98418.91
2023-04-15T12:45:00.852Z,98427.41
2023-04-15T12:50:04.556Z,98440.59
2023-04-15T12:55:10.261Z,98438.78
2023-04-15T13:00:15.140Z,98431.81
2023-04-15T13:05:19.004Z,98431.97
2023-04-15T13:10:23.837Z,98433.41
2023-04-15T13:15:27.748Z,98428.91
2023-04-15T13:20:31.360Z,98429.88
2023-04-15T13:25:36.647Z,98446.47
2023-04-15T13:30:40.809Z,98429.69
2023-04-15T13:35:44.481Z,98431.50
2023-04-15T13:40:49.393Z,98420.59
2023-04-15T13:45:52.960Z,98426.75
2023-04-15T13:50:56.385Z,98432.06
2023-04-15T13:56:01.144Z,98430.66
2023-04-15T14:01:06.117Z,98433.00
2023-04-15T14:06:10.617Z,98437.28
2023-04-15T14:11:15.680Z,98431.09
2023-04-15T14:16:19.184Z,98435.22
2023-04-15T14:21:22.712Z,98434.50
2023-04-15T14:26:27.677Z,98438.47
2023-04-15T14:31:31.114Z,98441.28
2023-04-15T14:36:35.077Z,98439.81
2023-04-15T14:41:40.272Z,98434.72
2023-04-15T14:46:43.732Z,98443.78
2023-04-15T14:51:47.756Z,98444.16
2023-04-15T14:56:52.587Z,98429.41
2023-04-15T15:01:56.354Z,98435.22
2023-04-15T15:07:00.028Z,98432.66
2023-04-15T15:12:05.241Z,98435.22
2023-04-15T15:17:08.736Z,98443.16
2023-04-15T15:22:12.567Z,98444.41
2023-04-15T15:27:17.431Z,98440.81
2023-04-15T15:32:20.941Z,98448.06
2023-04-15T15:37:24.896Z,98455.72
2023-04-15T15:42:33.176Z,98446.06
2023-04-15T15:47:36.835Z,98458.75
2023-04-15T15:52:40.569Z,98465.66
2023-04-15T15:57:45.781Z,98463.41
2023-04-15T16:03:05.877Z,98468.47
2023-04-15T16:08:10.687Z,98469.56
2023-04-15T16:13:15.926Z,98468.75
2023-04-15T16:18:19.802Z,98480.75
2023-04-15T16:23:24.039Z,98483.13
2023-04-15T16:28:29.334Z,98477.00
2023-04-15T16:33:33.410Z,98486.91
2023-04-15T16:38:37.214Z,98496.03
2023-04-15T16:43:42.178Z,98496.56
2023-04-15T16:48:46.195Z,98501.22
2023-04-15T16:53:50.445Z,98498.19
2023-04-15T16:58:55.626Z,98515.09
2023-04-15T17:03:59.429Z,98517.97
2023-04-15T17:09:03.034Z,98514.94
2023-04-15T17:14:08.062Z,98513.94
2023-04-15T17:19:12.745Z,98524.56
2023-04-15T17:24:22.084Z,98537.75
2023-04-15T17:29:32.426Z,98542.94
2023-04-15T17:34:50.737Z,98551.53
2023-04-15T17:40:15.000Z,98560.31
2023-04-15T17:45:39.887Z,98574.66
2023-04-15T17:51:04.912Z,98573.59
2023-04-15T17:56:29.472Z,98579.91
2023-04-15T18:01:54.330Z,98581.84
2023-04-15T18:07:17.753Z,98583.34
2023-04-15T18:12:41.313Z,98601.69
2023-04-15T18:18:06.068Z,98608.88
2023-04-15T18:23:09.723Z,98609.00
2023-04-15T18:28:13.738Z,98598.72
2023-04-15T18:33:18.938Z,98600.72
2023-04-15T18:38:22.384Z,98604.16
2023-04-15T18:43:25.960Z,98612.97
2023-04-15T18:48:30.966Z,98613.88
2023-04-15T18:53:34.417Z,98602.38
2023-04-15T18:59:08.788Z,98604.28
2023-04-15T19:04:03.383Z,98608.63
2023-04-15T19:09:07.420Z,98606.28
2023-04-15T19:14:11.418Z,98616.53
2023-04-15T19:19:16.451Z,98613.72
2023-04-15T19:24:20.370Z,98615.91
2023-04-15T19:29:24.348Z,98609.75
2023-04-15T19:34:29.160Z,98612.47
2023-04-15T19:39:32.927Z,98615.00
2023-04-15T19:44:37.358Z,98620.59
2023-04-15T19:49:44.139Z,98622.38
2023-04-15T19:54:48.009Z,98611.03
2023-04-15T19:59:51.717Z,98619.03
2023-04-15T20:04:56.581Z,98619.00
2023-04-15T20:09:59.970Z,98616.59
2023-04-15T20:15:03.359Z,98611.34
2023-04-15T20:20:09.866Z,98608.84
2023-04-15T20:25:13.354Z,98608.06
2023-04-15T20:30:16.922Z,98622.84
2023-04-15T20:35:21.910Z,98621.31
2023-04-15T20:40:25.958Z,98622.38
2023-04-15T20:45:29.551Z,98627.63
2023-04-15T20:50:34.437Z,98622.31
2023-04-15T20:55:37.879Z,98615.22
2023-04-15T21:00:41.659Z,98613.78
2023-04-15T21:05:46.770Z,98604.88
2023-04-15T21:10:50.282Z,98616.03
2023-04-15T21:15:54.585Z,98625.00
2023-04-15T21:21:00.467Z,98626.06
2023-04-15T21:26:04.182Z,98626.59
2023-04-15T21:31:08.351Z,98635.31
2023-04-15T21:36:14.837Z,98638.00
2023-04-15T21:41:18.290Z,98632.75
2023-04-15T21:46:25.394Z,98637.28
2023-04-15T21:51:32.851Z,98630.38
2023-04-15T21:56:37.925Z,98628.69
2023-04-15T22:01:41.744Z,98623.38
2023-04-15T22:06:47.013Z,98624.13
2023-04-15T22:11:50.652Z,98622.38
2023-04-15T22:16:54.661Z,98617.78
2023-04-15T22:22:00.054Z,98618.31
2023-04-15T22:27:03.644Z,98625.97
2023-04-15T22:32:08.558Z,98630.25
2023-04-15T22:37:13.731Z,98642.66
2023-04-15T22:42:17.239Z,98624.56
2023-04-15T22:47:21.333Z,98632.41
2023-04-15T22:52:30.647Z,98632.22
2023-04-15T22:57:35.074Z,98648.06
2023-04-15T23:02:38.723Z,98636.09
2023-04-15T23:07:43.960Z,98638.75
2023-04-15T23:12:48.371Z,98644.97
2023-04-15T23:17:52.246Z,98642.25
2023-04-15T23:22:57.106Z,98646.53
2023-04-15T23:28:00.973Z,98644.81
2023-04-15T23:33:04.704Z,98652.91
2023-04-15T23:38:09.887Z,98645.06
2023-04-15T23:43:13.325Z,98645.19
2023-04-15T23:48:16.986Z,98645.19
2023-04-15T23:53:21.865Z,98661.91
2023-04-15T23:58:25.499Z,98654.22
